createdAt,value
2019-04-28T06:08:59.703Z,7.12
2019-04-28T06:11:31.779Z,6.97
2019-04-28T06:14:03.661Z,6.80
2019-04-28T06:16:35.783Z,6.53
2019-04-28T06:19:10.303Z,6.40
2019-04-28T06:21:43.015Z,6.03
2019-04-28T06:24:15.667Z,6.40
2019-04-28T06:26:47.250Z,6.33
2019-04-28T06:29:20.945Z,6.95
2019-04-28T06:31:56.813Z,6.67
2019-04-28T06:34:28.779Z,6.47
2019-04-28T06:37:02.492Z,6.65
2019-04-28T06:39:35.556Z,6.40
2019-04-28T06:42:08.820Z,6.80
2019-04-28T06:44:42.064Z,6.83
2019-04-28T06:47:16.646Z,7.15
2019-04-28T06:49:47.832Z,6.33
2019-04-28T06:52:20.919Z,6.25
2019-04-28T06:54:54.339Z,6.53
2019-04-28T06:57:27.168Z,6.70
2019-04-28T06:59:59.242Z,6.40
2019-04-28T07:02:33.588Z,6.53
2019-04-28T07:05:06.498Z,6.37
2019-04-28T07:07:39.836Z,7.28
2019-04-28T07:10:13.359Z,7.08
2019-04-28T07:12:46.119Z,6.50
2019-04-28T07:15:18.240Z,13.20
2019-04-28T07:17:52.019Z,6.05
2019-04-28T07:20:25.550Z,6.55
2019-04-28T07:22:57.340Z,6.47
2019-04-28T07:25:30.288Z,6.53
2019-04-28T07:28:02.311Z,5.50
2019-04-28T07:30:35.559Z,6.33
2019-04-28T07:33:07.492Z,6.00
2019-04-28T07:35:39.258Z,5.90
2019-04-28T07:38:11.136Z,5.90
2019-04-28T07:40:43.685Z,6.08
2019-04-28T07:43:15.837Z,6.55
2019-04-28T07:45:50.172Z,5.87
2019-04-28T07:48:23.429Z,6.72
2019-04-28T07:50:56.874Z,6.15
2019-04-28T07:53:30.226Z,6.15
2019-04-28T07:56:02.049Z,5.80
2019-04-28T07:58:35.408Z,6.70
2019-04-28T08:01:09.859Z,6.08
2019-04-28T08:03:49.537Z,6.65
2019-04-28T08:06:22.066Z,6.08
2019-04-28T08:08:55.024Z,6.28
2019-04-28T08:11:29.195Z,7.37
2019-04-28T08:14:05.502Z,6.17
2019-04-28T08:16:37.345Z,6.62
2019-04-28T08:19:10.854Z,6.53
2019-04-28T08:21:43.846Z,6.90
2019-04-28T08:24:15.398Z,6.17
2019-04-28T08:26:48.096Z,6.40
2019-04-28T08:29:19.405Z,6.72
2019-04-28T08:31:54.021Z,6.97
2019-04-28T08:34:26.059Z,6.50
2019-04-28T08:36:59.027Z,7.33
2019-04-28T08:39:34.458Z,6.72
2019-04-28T08:42:08.005Z,7.20
2019-04-28T08:44:40.046Z,7.42
2019-04-28T08:47:12.308Z,6.62
2019-04-28T08:49:43.820Z,6.95
2019-04-28T08:52:16.436Z,7.45
2019-04-28T08:54:48.706Z,6.58
2019-04-28T08:57:22.615Z,6.85
2019-04-28T08:59:55.626Z,7.00
2019-04-28T09:02:29.376Z,6.85
2019-04-28T09:05:02.192Z,6.67
2019-04-28T09:07:35.205Z,6.67
2019-04-28T09:10:08.437Z,7.05
2019-04-28T09:12:41.853Z,7.37
2019-04-28T09:15:14.879Z,7.00
2019-04-28T09:17:46.691Z,6.80
2019-04-28T09:20:19.589Z,6.60
2019-04-28T09:22:51.332Z,7.03
2019-04-28T09:25:23.163Z,6.78
2019-04-28T09:27:55.319Z,7.15
2019-04-28T09:30:28.840Z,7.05
2019-04-28T09:33:02.075Z,6.80
2019-04-28T09:35:34.990Z,6.97
2019-04-28T09:38:07.130Z,7.12
2019-04-28T09:40:40.784Z,7.60
2019-04-28T09:54:05.744Z,11.43
2019-04-28T09:56:38.850Z,8.78
2019-04-28T09:59:10.910Z,8.00
2019-04-28T10:01:42.360Z,7.00
2019-04-28T10:04:15.105Z,7.33
2019-04-28T10:06:46.885Z,4.35
2019-04-28T10:09:18.803Z,4.47
2019-04-28T10:11:51.376Z,6.45
2019-04-28T10:14:23.715Z,7.83
2019-04-28T10:16:55.507Z,7.08
2019-04-28T10:19:28.117Z,7.20
2019-04-28T10:21:59.838Z,6.40
2019-04-28T10:24:32.379Z,6.25
2019-04-28T10:27:03.954Z,6.25
2019-04-28T10:29:36.354Z,5.55
2019-04-28T10:32:08.211Z,6.60
2019-04-28T10:34:53.817Z,5.70
2019-04-28T10:37:15.098Z,6.97
2019-04-28T10:39:48.622Z,10.00
2019-04-28T10:42:20.275Z,6.47
2019-04-28T10:44:55.156Z,6.17
2019-04-28T10:47:26.991Z,6.45
2019-04-28T10:49:59.029Z,5.87
2019-04-28T10:52:30.980Z,5.70
2019-04-28T10:55:03.002Z,5.83
2019-04-28T10:57:35.084Z,5.95
2019-04-28T11:00:08.739Z,6.10
2019-04-28T11:02:42.572Z,5.40
2019-04-28T11:05:17.058Z,5.65
2019-04-28T11:07:49.986Z,5.40
2019-04-28T11:10:23.700Z,5.65
2019-04-28T11:12:57.873Z,5.45
2019-04-28T11:15:31.864Z,6.70
2019-04-28T11:18:04.903Z,5.95
2019-04-28T11:20:36.410Z,6.33
2019-04-28T11:23:08.917Z,6.53
2019-04-28T11:25:40.516Z,8.43
2019-04-28T11:28:12.612Z,9.20
2019-04-28T11:30:45.029Z,10.75
2019-04-28T11:33:18.942Z,10.82
2019-04-28T11:35:51.338Z,11.63
2019-04-28T11:38:26.016Z,13.43
2019-04-28T11:40:57.486Z,12.80
2019-04-28T11:43:29.550Z,13.28
2019-04-28T11:46:03.962Z,12.40
2019-04-28T11:48:38.292Z,13.53
2019-04-28T11:51:10.501Z,14.18
2019-04-28T11:53:44.946Z,13.70
2019-04-28T11:56:16.577Z,14.43
2019-04-28T11:58:49.974Z,14.15
2019-04-28T12:01:23.922Z,14.30
2019-04-28T12:03:57.929Z,13.83
2019-04-28T12:06:30.396Z,12.60
2019-04-28T12:09:04.305Z,12.47
2019-04-28T12:11:37.046Z,11.18
2019-04-28T12:14:09.771Z,11.43
2019-04-28T12:16:43.343Z,11.60
2019-04-28T12:19:16.584Z,10.45
2019-04-28T12:21:48.216Z,11.18
2019-04-28T12:24:20.784Z,10.43
2019-04-28T12:26:52.390Z,10.78
2019-04-28T12:29:25.169Z,11.03
2019-04-28T12:31:57.102Z,11.40
2019-04-28T12:34:29.037Z,10.40
2019-04-28T12:37:02.076Z,10.25
2019-04-28T12:39:34.748Z,11.70
2019-04-28T12:42:06.537Z,11.10
2019-04-28T12:44:38.089Z,11.97
2019-04-28T12:47:09.836Z,12.58
2019-04-28T12:49:43.772Z,13.30
2019-04-28T12:52:16.737Z,13.35
2019-04-28T12:54:51.317Z,13.58
2019-04-28T12:57:23.163Z,13.45
2019-04-28T12:59:56.182Z,13.90
2019-04-28T13:02:29.804Z,13.35
2019-04-28T13:05:02.706Z,13.90
2019-04-28T13:07:37.333Z,13.20
2019-04-28T13:10:09.794Z,13.25
2019-04-28T13:12:42.808Z,13.48
2019-04-28T13:15:14.567Z,12.98
2019-04-28T13:17:47.507Z,12.63
2019-04-28T13:20:21.137Z,12.75
2019-04-28T13:22:52.819Z,13.15
2019-04-28T13:25:24.552Z,12.80
2019-04-28T13:27:57.006Z,13.60
2019-04-28T13:30:28.754Z,13.95
2019-04-28T13:33:01.456Z,13.78
2019-04-28T13:35:33.168Z,14.23
2019-04-28T13:38:04.817Z,14.35
2019-04-28T13:40:37.848Z,13.48
2019-04-28T13:43:09.505Z,14.58
2019-04-28T13:45:42.216Z,13.70
2019-04-28T13:48:15.754Z,14.03
2019-04-28T13:50:49.139Z,13.88
2019-04-28T13:53:21.009Z,13.03
2019-04-28T13:55:53.948Z,13.72
2019-04-28T13:58:26.694Z,13.60
2019-04-28T14:01:00.906Z,14.60
2019-04-28T14:03:35.025Z,14.75
2019-04-28T14:06:09.524Z,15.28
2019-04-28T14:08:42.207Z,15.28
2019-04-28T14:11:14.675Z,14.45
2019-04-28T14:13:49.004Z,13.75
2019-04-28T14:16:21.751Z,13.62
2019-04-28T14:18:56.219Z,14.78
2019-04-28T14:21:29.279Z,13.98
2019-04-28T14:24:00.820Z,13.83
2019-04-28T14:26:33.512Z,14.23
2019-04-28T14:29:06.116Z,13.00
2019-04-28T14:31:40.755Z,12.95
2019-04-28T14:34:12.226Z,13.18
2019-04-28T14:36:43.796Z,12.80
2019-04-28T14:39:15.908Z,13.25
2019-04-28T14:41:47.866Z,13.30
2019-04-28T14:44:20.913Z,13.83
2019-04-28T14:46:52.629Z,13.53
2019-04-28T14:49:24.381Z,14.25
2019-04-28T14:51:56.051Z,13.03
2019-04-28T14:54:27.977Z,13.78
2019-04-28T14:57:02.640Z,14.23
2019-04-28T14:59:35.317Z,15.03
2019-04-28T15:02:09.676Z,13.80
2019-04-28T15:04:43.519Z,14.78
2019-04-28T15:07:17.277Z,14.73
2019-04-28T15:09:50.857Z,13.72
2019-04-28T15:12:22.430Z,13.35
2019-04-28T15:14:55.593Z,13.48
2019-04-28T15:17:27.192Z,13.43
2019-04-28T15:20:02.257Z,15.32
2019-04-28T15:22:34.266Z,14.50
2019-04-28T15:25:09.661Z,14.73
2019-04-28T15:27:41.208Z,14.35
2019-04-28T15:30:14.301Z,13.45
2019-04-28T15:32:45.641Z,13.75
2019-04-28T15:35:19.474Z,14.60
2019-04-28T15:37:52.899Z,15.18
2019-04-28T15:40:25.993Z,14.53
2019-04-28T15:42:58.669Z,14.95
2019-04-28T15:45:30.379Z,15.40
2019-04-28T15:48:02.898Z,14.35
2019-04-28T15:50:35.718Z,14.33
2019-04-28T15:53:08.736Z,14.55
2019-04-28T15:55:41.577Z,14.38
2019-04-28T15:58:15.798Z,14.45
2019-04-28T16:00:48.564Z,14.83
2019-04-28T16:03:20.130Z,14.85
2019-04-28T16:05:52.567Z,15.23
2019-04-28T16:08:25.189Z,15.48
2019-04-28T16:10:57.774Z,15.68
2019-04-28T16:13:30.058Z,14.60
2019-04-28T16:16:05.289Z,16.23
2019-04-28T16:18:37.047Z,15.60
2019-04-28T16:21:09.801Z,14.75
2019-04-28T16:23:42.267Z,15.32
2019-04-28T16:26:14.697Z,15.23
2019-04-28T16:28:46.176Z,14.43
2019-04-28T16:31:17.714Z,15.55
2019-04-28T16:33:49.717Z,15.63
2019-04-28T16:36:22.385Z,15.13
2019-04-28T16:38:54.906Z,15.98
2019-04-28T16:41:31.720Z,16.15
2019-04-28T16:44:08.939Z,15.48
2019-04-28T16:46:40.532Z,15.83
2019-04-28T16:49:13.336Z,15.45
2019-04-28T16:51:45.924Z,15.65
2019-04-28T16:54:17.740Z,16.42
2019-04-28T16:56:51.731Z,17.05
2019-04-28T16:59:24.496Z,15.55
2019-04-28T17:01:57.662Z,15.70
2019-04-28T17:04:32.062Z,15.75
2019-04-28T17:07:06.908Z,16.97
2019-04-28T17:09:39.745Z,15.53
2019-04-28T17:12:11.288Z,14.95
2019-04-28T17:14:44.155Z,16.30
2019-04-28T17:17:15.547Z,14.80
2019-04-28T17:19:50.080Z,16.82
2019-04-28T17:22:23.741Z,16.00
2019-04-28T17:24:56.706Z,16.42
2019-04-28T17:27:29.242Z,15.68
2019-04-28T17:30:01.913Z,16.32
2019-04-28T17:32:34.422Z,16.30
2019-04-28T17:35:07.603Z,16.27
2019-04-28T17:37:39.144Z,15.58
2019-04-28T17:40:11.235Z,16.27
2019-04-28T17:42:43.789Z,16.05
2019-04-28T17:45:16.653Z,16.45
2019-04-28T17:47:50.971Z,17.10
2019-04-28T17:50:26.741Z,17.57
2019-04-28T17:52:58.236Z,16.57
2019-04-28T17:55:30.092Z,16.70
2019-04-28T17:58:02.707Z,17.55
2019-04-28T18:00:36.714Z,16.40
2019-04-28T18:03:11.403Z,16.37
2019-04-28T18:05:47.165Z,17.62
2019-04-28T18:08:23.008Z,16.62
2019-04-28T18:10:56.026Z,16.42
2019-04-28T18:13:28.530Z,16.97
2019-04-28T18:16:04.492Z,15.95
2019-04-28T18:18:40.808Z,17.17
2019-04-28T18:21:12.521Z,16.97
2019-04-28T18:23:47.154Z,16.10
2019-04-28T18:26:21.354Z,16.32
2019-04-28T18:28:53.971Z,16.75
2019-04-28T18:31:27.728Z,17.37
2019-04-28T18:34:00.484Z,16.00
2019-04-28T18:36:33.313Z,15.48
2019-04-28T18:39:06.036Z,17.02
2019-04-28T18:41:39.928Z,16.05
2019-04-28T18:44:12.850Z,16.73
2019-04-28T18:46:44.526Z,16.17
2019-04-28T18:49:16.258Z,16.82
2019-04-28T18:51:48.940Z,16.70
2019-04-28T18:54:21.660Z,17.20
2019-04-28T18:56:53.793Z,16.95
2019-04-28T18:59:26.474Z,16.73
2019-04-28T19:02:00.635Z,16.82
2019-04-28T19:04:35.365Z,16.97
2019-04-28T19:07:11.229Z,16.27
2019-04-28T19:09:44.578Z,16.93
2019-04-28T19:12:18.368Z,17.27
2019-04-28T19:14:52.268Z,17.52
2019-04-28T19:17:26.165Z,16.48
2019-04-28T19:19:57.971Z,16.50
2019-04-28T19:22:31.109Z,16.42
2019-04-28T19:25:04.294Z,18.15
2019-04-28T19:27:36.975Z,16.97
2019-04-28T19:30:09.963Z,17.05
2019-04-28T19:32:42.756Z,18.40
2019-04-28T19:35:15.311Z,17.55
2019-04-28T19:37:47.737Z,17.73
2019-04-28T19:40:21.937Z,17.82
2019-04-28T19:42:55.048Z,17.12
2019-04-28T19:45:27.765Z,17.73
2019-04-28T19:48:00.392Z,17.67
2019-04-28T19:50:33.255Z,18.40
2019-04-28T19:53:04.831Z,17.23
2019-04-28T19:55:38.688Z,16.80
2019-04-28T19:58:12.970Z,17.73
2019-04-28T20:00:47.433Z,17.95
2019-04-28T20:03:22.096Z,17.92
2019-04-28T20:05:54.350Z,18.48
2019-04-28T20:08:26.340Z,17.02
2019-04-28T20:10:58.939Z,18.45
2019-04-28T20:13:31.760Z,17.60
2019-04-28T20:16:04.256Z,19.10
2019-04-28T20:18:35.767Z,17.73
2019-04-28T20:21:10.181Z,17.90
2019-04-28T20:23:42.792Z,18.37
2019-04-28T20:26:15.588Z,18.17
2019-04-28T20:28:48.227Z,18.07
2019-04-28T20:31:20.044Z,18.57
2019-04-28T20:33:52.440Z,19.52
2019-04-28T20:36:26.193Z,18.12
2019-04-28T20:38:58.907Z,19.25
2019-04-28T20:41:34.455Z,18.95
2019-04-28T20:44:07.075Z,18.15
2019-04-28T20:46:40.075Z,18.15
2019-04-28T20:49:12.637Z,18.10
2019-04-28T20:51:45.066Z,19.73
2019-04-28T20:54:16.628Z,19.32
2019-04-28T20:56:48.274Z,18.40
2019-04-28T20:59:21.225Z,19.80
2019-04-28T21:01:52.938Z,18.82
2019-04-28T21:04:26.779Z,19.30
2019-04-28T21:06:59.636Z,19.07
2019-04-28T21:09:31.569Z,19.15
2019-04-28T21:12:03.298Z,18.25
2019-04-28T21:14:35.142Z,19.70
2019-04-28T21:17:08.074Z,19.02
2019-04-28T21:19:41.071Z,18.95
2019-04-28T21:22:13.402Z,19.00
2019-04-28T21:24:46.075Z,18.42
2019-04-28T21:27:18.604Z,21.10
2019-04-28T21:29:50.943Z,19.42
2019-04-28T21:32:23.583Z,20.20
2019-04-28T21:34:58.150Z,19.02
2019-04-28T21:37:32.360Z,19.40
2019-04-28T21:40:03.925Z,19.35
2019-04-28T21:42:38.077Z,20.45
2019-04-28T21:45:12.618Z,19.75
2019-04-28T21:47:45.304Z,20.32
2019-04-28T21:50:18.260Z,19.70
2019-04-28T21:52:51.118Z,19.30
2019-04-28T21:55:24.277Z,18.77
2019-04-28T21:57:56.677Z,20.17
2019-04-28T22:00:33.539Z,19.73
2019-04-28T22:03:04.892Z,20.25
2019-04-28T22:05:38.620Z,20.15
2019-04-28T22:08:11.571Z,20.35
2019-04-28T22:10:44.329Z,20.57
2019-04-28T22:13:16.908Z,20.45
2019-04-28T22:15:49.713Z,20.50
2019-04-28T22:18:22.332Z,20.08
2019-04-28T22:20:55.172Z,21.27
2019-04-28T22:23:29.029Z,19.55
2019-04-28T22:26:01.473Z,21.42
2019-04-28T22:28:34.125Z,20.43
2019-04-28T22:31:06.969Z,20.72
2019-04-28T22:33:41.012Z,22.55
2019-04-28T22:36:13.687Z,20.82
2019-04-28T22:38:45.147Z,21.73
2019-04-28T22:41:17.613Z,21.77
2019-04-28T22:43:50.324Z,21.95
2019-04-28T22:46:22.831Z,22.07
2019-04-28T22:48:56.157Z,22.22
2019-04-28T22:51:28.712Z,20.75
2019-04-28T22:54:01.337Z,21.40
2019-04-28T22:56:35.216Z,21.25
2019-04-28T22:59:09.362Z,24.85
2019-04-28T23:01:43.344Z,22.27
2019-04-28T23:04:19.005Z,23.00
2019-04-28T23:06:51.950Z,22.37
2019-04-28T23:09:23.798Z,23.32
2019-04-28T23:11:55.681Z,23.47
2019-04-28T23:14:27.186Z,23.87
2019-04-28T23:16:59.158Z,22.02
2019-04-28T23:19:33.162Z,22.65
2019-04-28T23:22:07.231Z,23.77
2019-04-28T23:24:39.827Z,23.20
2019-04-28T23:27:11.451Z,22.35
2019-04-28T23:29:46.062Z,22.80
2019-04-28T23:32:17.675Z,22.45
2019-04-28T23:34:49.314Z,27.17
2019-04-28T23:37:20.891Z,26.57
2019-04-28T23:39:52.421Z,27.60
2019-04-28T23:42:25.359Z,33.05
2019-04-28T23:44:57.858Z,32.15
2019-04-28T23:47:30.854Z,30.72
2019-04-28T23:50:02.388Z,29.45
2019-04-28T23:52:37.510Z,28.73
2019-04-28T23:55:12.414Z,28.20
2019-04-28T23:57:44.970Z,26.07
